Market Center, South Carolina
Current Conditions -  °F | °C
As of 3:53 PM on Thursday 18 Dec 2014 (Local Time) from KCUB Reporting Station
Clear Clear  
Wind Chill: 59°   Ceiling: Unl
Heat Index: 59°   Visibility: 10mi
Dew Point: 32°   Wind: 5mph
Humidity: 36%   Direction: 200°SSW
Pressure: 30.09"   Gusts: NA
Location:  33.9841°N, 81.0264°W
Report Text: KCUB 182053Z AUTO 20004KT 10SM CLR 15/00 A3009 RMK AO2 SLP188 T01500000 55014
Loading
Personal Weather Stations






























Interactive Weather Map New forecast layout! Learn more

10-Day Weather Forecast

Advertisements
Track Severe Weather on mobile